createdAt,value
2018-06-19T00:00:34.346Z,0.00
2018-06-19T00:01:34.321Z,0.00
2018-06-19T00:02:34.297Z,0.00
2018-06-19T00:03:34.273Z,0.00
2018-06-19T00:04:34.247Z,0.00
2018-06-19T00:05:34.425Z,0.00
2018-06-19T00:06:34.199Z,0.00
2018-06-19T00:07:34.181Z,0.00
2018-06-19T00:08:34.149Z,0.00
2018-06-19T00:09:34.125Z,0.00
2018-06-19T00:10:34.103Z,0.00
2018-06-19T00:11:34.081Z,0.00
2018-06-19T00:12:34.053Z,0.00
2018-06-19T00:13:34.026Z,0.00
2018-06-19T00:14:34.003Z,0.00
2018-06-19T00:15:33.982Z,0.00
2018-06-19T00:16:33.955Z,0.00
2018-06-19T00:17:33.932Z,0.00
2018-06-19T00:18:33.905Z,0.00
2018-06-19T00:19:33.881Z,0.00
2018-06-19T00:20:33.856Z,0.00
2018-06-19T00:21:33.833Z,0.00
2018-06-19T00:22:33.809Z,0.00
2018-06-19T00:23:33.789Z,0.00
2018-06-19T00:24:33.758Z,0.00
2018-06-19T00:25:33.743Z,0.00
2018-06-19T00:26:33.711Z,0.00
2018-06-19T00:27:33.687Z,0.00
2018-06-19T00:28:33.666Z,0.00
2018-06-19T00:29:33.644Z,0.00
2018-06-19T00:30:33.613Z,0.00
2018-06-19T00:31:33.649Z,0.00
2018-06-19T00:32:33.564Z,0.00
2018-06-19T00:33:33.540Z,0.00
2018-06-19T00:34:33.718Z,0.00
2018-06-19T00:35:33.493Z,0.00
2018-06-19T00:36:33.468Z,0.00
2018-06-19T00:37:33.443Z,0.00
2018-06-19T00:38:33.422Z,0.00
2018-06-19T00:39:33.395Z,0.00
2018-06-19T00:40:33.370Z,0.00
2018-06-19T00:41:33.346Z,0.00
2018-06-19T00:42:33.324Z,0.00
2018-06-19T00:43:33.298Z,0.00
2018-06-19T00:44:33.271Z,0.00
2018-06-19T00:45:33.248Z,0.00
2018-06-19T00:46:33.226Z,0.00
2018-06-19T00:47:33.201Z,0.00
2018-06-19T00:48:33.177Z,0.00
2018-06-19T00:49:33.155Z,0.00
2018-06-19T00:50:33.125Z,0.00
2018-06-19T00:51:33.102Z,0.00
2018-06-19T00:52:33.076Z,0.00
2018-06-19T00:53:33.055Z,0.00
2018-06-19T00:54:33.028Z,0.00
2018-06-19T00:55:33.011Z,0.00
2018-06-19T00:56:32.982Z,0.00
2018-06-19T00:57:32.954Z,0.00
2018-06-19T00:58:33.132Z,0.00
2018-06-19T00:59:32.905Z,0.00
2018-06-19T01:00:32.880Z,0.00
2018-06-19T01:01:32.866Z,0.00
2018-06-19T01:02:32.870Z,0.00
2018-06-19T01:03:32.806Z,0.00
2018-06-19T01:04:32.986Z,0.00
2018-06-19T01:05:32.757Z,0.00
2018-06-19T01:06:32.934Z,0.00
2018-06-19T01:07:32.708Z,0.00
2018-06-19T01:08:32.684Z,0.00
2018-06-19T01:09:32.660Z,0.00
2018-06-19T01:10:32.871Z,0.00
2018-06-19T01:11:32.612Z,0.00
2018-06-19T01:12:35.812Z,0.00
2018-06-19T01:13:32.762Z,0.00
2018-06-19T01:14:32.536Z,0.00
2018-06-19T01:15:32.514Z,0.00
2018-06-19T01:16:32.688Z,0.00
2018-06-19T01:17:32.461Z,0.00
2018-06-19T01:18:32.437Z,0.00
2018-06-19T01:19:32.413Z,0.00
2018-06-19T01:20:32.591Z,0.00
2018-06-19T01:21:32.362Z,0.00
2018-06-19T01:22:32.339Z,0.00
2018-06-19T01:23:32.315Z,0.00
2018-06-19T01:24:32.287Z,0.00
2018-06-19T01:25:32.264Z,0.00
2018-06-19T01:26:32.243Z,0.00
2018-06-19T01:27:32.215Z,0.00
2018-06-19T01:28:32.218Z,0.00
2018-06-19T01:29:32.166Z,0.00
2018-06-19T01:30:32.140Z,0.00
2018-06-19T01:31:32.117Z,0.00
2018-06-19T01:32:32.090Z,0.00
2018-06-19T01:33:32.066Z,0.00
2018-06-19T01:34:32.049Z,0.00
2018-06-19T01:35:32.017Z,0.00
2018-06-19T01:36:31.992Z,0.00
2018-06-19T01:37:31.969Z,0.00
2018-06-19T01:38:32.149Z,0.00
2018-06-19T01:39:31.919Z,0.00
2018-06-19T01:40:31.891Z,0.00
2018-06-19T01:41:31.869Z,0.00
2018-06-19T01:42:31.845Z,0.00
2018-06-19T01:43:31.826Z,0.00
2018-06-19T01:44:31.996Z,0.00
2018-06-19T01:45:31.773Z,0.00
2018-06-19T01:46:31.750Z,0.00
2018-06-19T01:47:31.721Z,0.00
2018-06-19T01:48:31.697Z,0.00
2018-06-19T01:49:31.674Z,0.00
2018-06-19T01:50:31.647Z,0.00
2018-06-19T01:51:31.677Z,4.00
2018-06-19T01:52:31.597Z,4.00
2018-06-19T01:53:31.572Z,4.00
2018-06-19T01:54:31.549Z,4.00
2018-06-19T01:55:31.524Z,4.00
2018-06-19T01:56:31.503Z,0.00
2018-06-19T01:57:31.476Z,4.00
2018-06-19T01:58:31.449Z,4.00
2018-06-19T01:59:31.426Z,4.00
2018-06-19T02:00:31.400Z,4.00
2018-06-19T02:01:31.377Z,4.00
2018-06-19T02:02:31.354Z,4.00
2018-06-19T02:03:31.328Z,8.00
2018-06-19T02:04:31.301Z,4.00
2018-06-19T02:05:31.276Z,8.00
2018-06-19T02:06:31.252Z,8.00
2018-06-19T02:07:31.228Z,8.00
2018-06-19T02:08:31.204Z,12.00
2018-06-19T02:09:31.179Z,12.00
2018-06-19T02:10:31.153Z,12.00
2018-06-19T02:11:31.132Z,12.00
2018-06-19T02:12:31.105Z,12.00
2018-06-19T02:13:31.089Z,16.00
2018-06-19T02:14:31.060Z,12.00
2018-06-19T02:15:31.029Z,16.00
2018-06-19T02:16:31.004Z,16.00
2018-06-19T02:17:30.979Z,16.00
2018-06-19T02:18:30.953Z,12.00
2018-06-19T02:19:30.930Z,16.00
2018-06-19T02:20:30.907Z,20.00
2018-06-19T02:21:30.879Z,20.00
2018-06-19T02:22:30.856Z,20.00
2018-06-19T02:23:30.831Z,20.00
2018-06-19T02:24:30.804Z,24.00
2018-06-19T02:25:30.781Z,20.00
2018-06-19T02:26:30.756Z,16.00
2018-06-19T02:27:30.732Z,20.00
2018-06-19T02:28:30.707Z,20.00
2018-06-19T02:29:30.683Z,16.00
2018-06-19T02:30:30.659Z,20.00
2018-06-19T02:31:30.635Z,20.00
2018-06-19T02:32:31.363Z,24.00
2018-06-19T02:33:30.584Z,24.00
2018-06-19T02:34:30.562Z,28.00
2018-06-19T02:35:30.536Z,28.00
2018-06-19T02:36:30.510Z,32.00
2018-06-19T02:37:30.484Z,40.00
2018-06-19T02:38:30.461Z,48.00
2018-06-19T02:39:30.443Z,56.00
2018-06-19T02:40:30.410Z,60.00
2018-06-19T02:41:30.394Z,60.00
2018-06-19T02:42:30.361Z,64.00
2018-06-19T02:43:30.339Z,64.00
2018-06-19T02:44:30.313Z,72.00
2018-06-19T02:45:30.290Z,76.00
2018-06-19T02:46:30.265Z,80.00
2018-06-19T02:47:30.241Z,88.00
2018-06-19T02:48:30.215Z,92.00
2018-06-19T02:49:30.192Z,100.00
2018-06-19T02:50:30.166Z,104.00
2018-06-19T02:51:30.144Z,108.00
2018-06-19T02:52:30.120Z,112.00
2018-06-19T02:53:30.093Z,116.00
2018-06-19T02:54:30.067Z,124.00
2018-06-19T02:55:30.246Z,136.00
2018-06-19T02:56:30.018Z,144.00
2018-06-19T02:57:29.994Z,152.00
2018-06-19T02:58:29.969Z,164.00
2018-06-19T02:59:29.944Z,184.00
2018-06-19T03:00:29.939Z,196.00
2018-06-19T03:01:29.899Z,212.00
2018-06-19T03:02:29.871Z,228.00
2018-06-19T03:03:29.846Z,248.00
2018-06-19T03:04:29.821Z,264.00
2018-06-19T03:05:29.801Z,296.00
2018-06-19T03:06:29.773Z,340.00
2018-06-19T03:07:29.899Z,372.00
2018-06-19T03:08:29.726Z,400.00
2018-06-19T03:09:29.699Z,436.00
2018-06-19T03:10:29.678Z,488.00
2018-06-19T03:11:29.650Z,540.00
2018-06-19T03:12:29.635Z,556.00
2018-06-19T03:13:29.601Z,560.00
2018-06-19T03:14:29.576Z,556.00
2018-06-19T03:15:29.553Z,528.00
2018-06-19T03:16:29.527Z,488.00
2018-06-19T03:17:29.515Z,472.00
2018-06-19T03:18:29.477Z,476.00
2018-06-19T03:19:29.454Z,500.00
2018-06-19T03:20:29.429Z,528.00
2018-06-19T03:21:29.405Z,564.00
2018-06-19T03:22:29.380Z,612.00
2018-06-19T03:23:29.358Z,680.00
2018-06-19T03:24:29.539Z,768.00
2018-06-19T03:25:29.307Z,880.00
2018-06-19T03:26:29.284Z,980.00
2018-06-19T03:27:29.261Z,1028.00
2018-06-19T03:28:29.233Z,1060.00
2018-06-19T03:29:29.212Z,1104.00
2018-06-19T03:30:29.319Z,1164.00
2018-06-19T03:31:29.163Z,1208.00
2018-06-19T03:32:29.143Z,1240.00
2018-06-19T03:33:29.112Z,1280.00
2018-06-19T03:34:29.086Z,1272.00
2018-06-19T03:35:29.063Z,1216.00
2018-06-19T03:36:29.038Z,1172.00
2018-06-19T03:37:29.013Z,1184.00
2018-06-19T03:38:28.991Z,1240.00
2018-06-19T03:39:28.965Z,1324.00
2018-06-19T03:40:28.939Z,1368.00
2018-06-19T03:41:28.915Z,1356.00
2018-06-19T03:42:28.891Z,1328.00
2018-06-19T03:43:28.869Z,1340.00
2018-06-19T03:44:28.842Z,1348.00
2018-06-19T03:45:28.819Z,1408.00
2018-06-19T03:46:28.793Z,1504.00
2018-06-19T03:47:28.769Z,1588.00
2018-06-19T03:48:28.743Z,1644.00
2018-06-19T03:49:28.723Z,1640.00
2018-06-19T03:50:28.695Z,1588.00
2018-06-19T03:51:28.671Z,1572.00
2018-06-19T03:52:28.647Z,1580.00
2018-06-19T03:53:28.623Z,1584.00
2018-06-19T03:54:28.597Z,1608.00
2018-06-19T03:55:28.573Z,1568.00
2018-06-19T03:56:28.548Z,1580.00
2018-06-19T03:57:28.524Z,1764.00
2018-06-19T03:58:28.702Z,2012.00
2018-06-19T03:59:28.475Z,2268.00
2018-06-19T04:00:28.451Z,2436.00
2018-06-19T04:01:28.427Z,2528.00
2018-06-19T04:02:28.402Z,2620.00
2018-06-19T04:03:28.378Z,2720.00
2018-06-19T04:04:28.554Z,2836.00
2018-06-19T04:05:28.329Z,2904.00
2018-06-19T04:06:28.305Z,2820.00
2018-06-19T04:07:28.281Z,2660.00
2018-06-19T04:08:28.257Z,2488.00
2018-06-19T04:09:28.232Z,2408.00
2018-06-19T04:10:28.286Z,2516.00
2018-06-19T04:11:28.190Z,2784.00
2018-06-19T04:12:28.159Z,3012.00
2018-06-19T04:13:28.135Z,3136.00
2018-06-19T04:14:28.120Z,3212.00
2018-06-19T04:15:28.088Z,3308.00
2018-06-19T04:16:28.068Z,3408.00
2018-06-19T04:17:28.041Z,3468.00
2018-06-19T04:18:28.018Z,3472.00
2018-06-19T04:19:27.993Z,3460.00
2018-06-19T04:20:27.966Z,3544.00
2018-06-19T04:21:27.942Z,3664.00
2018-06-19T04:22:27.924Z,3640.00
2018-06-19T04:23:27.896Z,3640.00
2018-06-19T04:24:27.869Z,3492.00
2018-06-19T04:25:27.846Z,3344.00
2018-06-19T04:26:27.822Z,3460.00
2018-06-19T04:27:27.798Z,3564.00
2018-06-19T04:28:27.776Z,3564.00
2018-06-19T04:29:27.749Z,3480.00
2018-06-19T04:30:27.731Z,3500.00
2018-06-19T04:31:27.708Z,3552.00
2018-06-19T04:32:27.677Z,3552.00
2018-06-19T04:33:27.689Z,3524.00
2018-06-19T04:34:27.630Z,3464.00
2018-06-19T04:35:27.607Z,3328.00
2018-06-19T04:36:27.582Z,3196.00
2018-06-19T04:37:27.557Z,3140.00
2018-06-19T04:38:27.533Z,3316.00
2018-06-19T04:39:27.511Z,3348.00
2018-06-19T04:40:27.485Z,3252.00
2018-06-19T04:41:27.460Z,3200.00
2018-06-19T04:42:27.435Z,3132.00
2018-06-19T04:43:27.415Z,3108.00
2018-06-19T04:44:27.387Z,3328.00
2018-06-19T04:45:27.365Z,3396.00
2018-06-19T04:46:27.340Z,3444.00
2018-06-19T04:47:27.320Z,3568.00
2018-06-19T04:48:27.290Z,3560.00
2018-06-19T04:49:27.272Z,3760.00
2018-06-19T04:50:27.249Z,4168.00
2018-06-19T04:51:27.229Z,4564.00
2018-06-19T04:52:27.195Z,4728.00
2018-06-19T04:53:27.174Z,4968.00
2018-06-19T04:54:27.148Z,5392.00
2018-06-19T04:55:27.126Z,5728.00
2018-06-19T04:56:27.098Z,5888.00
2018-06-19T04:57:27.077Z,6160.00
2018-06-19T04:58:27.051Z,6520.00
2018-06-19T04:59:27.027Z,6768.00
2018-06-19T05:00:27.002Z,7208.00
2018-06-19T05:01:26.980Z,7704.00
2018-06-19T05:02:26.954Z,8004.00
2018-06-19T05:03:26.945Z,7776.00
2018-06-19T05:04:26.905Z,7388.00
2018-06-19T05:05:26.886Z,7292.00
2018-06-19T05:06:26.861Z,7240.00
2018-06-19T05:07:26.835Z,7244.00
2018-06-19T05:08:26.810Z,7428.00
2018-06-19T05:09:26.791Z,7760.00
2018-06-19T05:10:26.765Z,8144.00
2018-06-19T05:11:26.741Z,8220.00
2018-06-19T05:12:26.716Z,7968.00
2018-06-19T05:13:26.692Z,7592.00
2018-06-19T05:14:26.673Z,7648.00
2018-06-19T05:15:26.645Z,8444.00
2018-06-19T05:16:26.623Z,9408.00
2018-06-19T05:17:26.596Z,10404.00
2018-06-19T05:18:26.573Z,11000.00
2018-06-19T05:19:26.555Z,10992.00
2018-06-19T05:20:26.526Z,10688.00
2018-06-19T05:21:26.507Z,10340.00
2018-06-19T05:22:26.530Z,10404.00
2018-06-19T05:23:26.457Z,10584.00
2018-06-19T05:24:26.434Z,10544.00
2018-06-19T05:25:26.407Z,10628.00
2018-06-19T05:26:26.384Z,10604.00
2018-06-19T05:27:26.360Z,10468.00
2018-06-19T05:28:26.339Z,10700.00
2018-06-19T05:29:26.311Z,11124.00
2018-06-19T05:30:26.325Z,11828.00
2018-06-19T05:31:26.265Z,12624.00
2018-06-19T05:32:26.240Z,13460.00
2018-06-19T05:33:26.218Z,14448.00
2018-06-19T05:34:26.194Z,15112.00
2018-06-19T05:35:26.174Z,15244.00
2018-06-19T05:36:26.148Z,15064.00
2018-06-19T05:37:26.124Z,14520.00
2018-06-19T05:38:26.101Z,15236.00
2018-06-19T05:39:26.077Z,16200.00
2018-06-19T05:40:26.053Z,16848.00
2018-06-19T05:41:26.033Z,16684.00
2018-06-19T05:42:26.007Z,15964.00
2018-06-19T05:43:25.984Z,15856.00
2018-06-19T05:44:25.960Z,15996.00
2018-06-19T05:45:25.936Z,16164.00
2018-06-19T05:46:25.921Z,16764.00
2018-06-19T05:47:25.891Z,16860.00
2018-06-19T05:48:25.868Z,16408.00
2018-06-19T05:49:25.847Z,16588.00
2018-06-19T05:50:25.822Z,17344.00
2018-06-19T05:51:25.799Z,17600.00
2018-06-19T05:52:25.775Z,17344.00
2018-06-19T05:53:25.768Z,17132.00
2018-06-19T05:54:25.729Z,16716.00
2018-06-19T05:55:25.708Z,16056.00
2018-06-19T05:56:25.683Z,15660.00
2018-06-19T05:57:25.663Z,15512.00
2018-06-19T05:58:25.644Z,15316.00
2018-06-19T05:59:25.616Z,15356.00
2018-06-19T06:00:25.794Z,15564.00
2018-06-19T06:01:25.573Z,15620.00
2018-06-19T06:02:25.551Z,15556.00
2018-06-19T06:03:25.524Z,15564.00
2018-06-19T06:04:25.500Z,15508.00
2018-06-19T06:05:25.477Z,15884.00
2018-06-19T06:06:25.455Z,16752.00
2018-06-19T06:07:25.432Z,17760.00
2018-06-19T06:08:25.411Z,17952.00
2018-06-19T06:09:25.385Z,17664.00
2018-06-19T06:10:25.372Z,17568.00
2018-06-19T06:11:25.341Z,17124.00
2018-06-19T06:12:25.524Z,16228.00
2018-06-19T06:13:25.295Z,15460.00
2018-06-19T06:14:25.273Z,14836.00
2018-06-19T06:15:25.252Z,14160.00
2018-06-19T06:16:25.281Z,14524.00
2018-06-19T06:17:25.223Z,15160.00
2018-06-19T06:18:25.182Z,15208.00
2018-06-19T06:19:25.159Z,15052.00
2018-06-19T06:20:25.136Z,14080.00
2018-06-19T06:21:25.116Z,14100.00
2018-06-19T06:22:25.092Z,14736.00
2018-06-19T06:23:25.069Z,15224.00
2018-06-19T06:24:25.046Z,16000.00
2018-06-19T06:25:25.024Z,16696.00
2018-06-19T06:26:25.022Z,17632.00
2018-06-19T06:27:24.979Z,18464.00
2018-06-19T06:28:24.958Z,19424.00
2018-06-19T06:29:24.933Z,20288.00
2018-06-19T06:30:24.911Z,20992.00
2018-06-19T06:31:24.963Z,21856.00
2018-06-19T06:32:24.895Z,22240.00
2018-06-19T06:33:24.843Z,22944.00
2018-06-19T06:34:24.820Z,23872.00
2018-06-19T06:35:24.801Z,24192.00
2018-06-19T06:36:24.775Z,24352.00
2018-06-19T06:37:24.754Z,24000.00
2018-06-19T06:38:24.731Z,26080.00
2018-06-19T06:39:24.758Z,31040.00
2018-06-19T06:40:24.685Z,35296.00
2018-06-19T06:41:24.664Z,37856.00
2018-06-19T06:42:24.641Z,36416.00
2018-06-19T06:43:24.621Z,34624.00
2018-06-19T06:44:24.602Z,34656.00
2018-06-19T06:45:24.579Z,36736.00
2018-06-19T06:46:24.554Z,39648.00
2018-06-19T06:47:24.535Z,39360.00
2018-06-19T06:48:24.511Z,54112.00
2018-06-19T06:49:24.490Z,48640.00
2018-06-19T06:50:24.567Z,61664.00
2018-06-19T06:51:24.447Z,43328.00
2018-06-19T06:52:24.631Z,38528.00
2018-06-19T06:53:24.405Z,38976.00
2018-06-19T06:54:24.384Z,39232.00
2018-06-19T06:55:24.366Z,40672.00
2018-06-19T06:56:24.342Z,37280.00
2018-06-19T06:57:24.323Z,32736.00
2018-06-19T06:58:24.302Z,29600.00
2018-06-19T06:59:24.282Z,28448.00
2018-06-19T07:00:24.268Z,28704.00
2018-06-19T07:01:24.240Z,31776.00
2018-06-19T07:02:24.223Z,48192.00
2018-06-19T07:03:24.204Z,66784.00
2018-06-19T07:04:24.179Z,66816.00
2018-06-19T07:05:24.159Z,75104.00
2018-06-19T07:06:24.139Z,66208.00
2018-06-19T07:07:24.120Z,63392.00
2018-06-19T07:08:24.098Z,51488.00
2018-06-19T07:09:24.082Z,50240.00
2018-06-19T07:10:24.062Z,48672.00
2018-06-19T07:11:24.040Z,51232.00
2018-06-19T07:12:24.021Z,56608.00
2018-06-19T07:13:24.031Z,52576.00
2018-06-19T07:14:23.983Z,50432.00
2018-06-19T07:15:23.963Z,47520.00
2018-06-19T07:16:23.942Z,45312.00
2018-06-19T07:17:23.924Z,41920.00
2018-06-19T07:18:23.905Z,39200.00
2018-06-19T07:19:23.916Z,34784.00
2018-06-19T07:20:23.868Z,32352.00
2018-06-19T07:21:23.848Z,31648.00
2018-06-19T07:22:23.869Z,31072.00
2018-06-19T07:23:23.811Z,28160.00
2018-06-19T07:24:23.795Z,24000.00
2018-06-19T07:25:23.770Z,21248.00
2018-06-19T07:26:23.752Z,20096.00
2018-06-19T07:27:23.734Z,19552.00
2018-06-19T07:28:23.711Z,18592.00
2018-06-19T07:29:23.698Z,17472.00
2018-06-19T07:30:23.675Z,16364.00
2018-06-19T07:31:23.654Z,16340.00
2018-06-19T07:32:23.632Z,16308.00
2018-06-19T07:33:23.611Z,16548.00
2018-06-19T07:34:23.592Z,18240.00
2018-06-19T07:35:23.575Z,20640.00
2018-06-19T07:36:23.754Z,22368.00
2018-06-19T07:37:23.733Z,24288.00
2018-06-19T07:38:23.609Z,27328.00
2018-06-19T07:39:23.695Z,28128.00
2018-06-19T07:40:23.469Z,30720.00
2018-06-19T07:41:23.448Z,34240.00
2018-06-19T07:42:23.427Z,37344.00
2018-06-19T07:43:23.407Z,41568.00
2018-06-19T07:44:23.391Z,44096.00
2018-06-19T07:45:23.363Z,36512.00
2018-06-19T07:46:23.347Z,28832.00
2018-06-19T07:47:23.325Z,26784.00
2018-06-19T07:48:23.308Z,26496.00
2018-06-19T07:49:23.334Z,24736.00
2018-06-19T07:50:23.261Z,24064.00
2018-06-19T07:51:23.249Z,26112.00
2018-06-19T07:52:23.221Z,29888.00
2018-06-19T07:53:23.199Z,32000.00
2018-06-19T07:54:23.180Z,32608.00
2018-06-19T07:55:23.159Z,31840.00
2018-06-19T07:56:23.140Z,32800.00
2018-06-19T07:57:23.182Z,34880.00
2018-06-19T07:58:23.096Z,38304.00
2018-06-19T07:59:23.081Z,40704.00
2018-06-19T08:00:23.072Z,38080.00
2018-06-19T08:01:23.038Z,35616.00
2018-06-19T08:02:23.018Z,33792.00
2018-06-19T08:03:22.995Z,33760.00
2018-06-19T08:04:22.976Z,33248.00
2018-06-19T08:05:22.956Z,28992.00
2018-06-19T08:06:22.934Z,26720.00
2018-06-19T08:07:22.915Z,25856.00
2018-06-19T08:08:22.892Z,25728.00
2018-06-19T08:09:22.871Z,25504.00
2018-06-19T08:10:22.852Z,24032.00
2018-06-19T08:11:22.832Z,24704.00
2018-06-19T08:12:22.812Z,25344.00
2018-06-19T08:13:22.809Z,26656.00
2018-06-19T08:14:22.774Z,29056.00
2018-06-19T08:15:22.769Z,28960.00
2018-06-19T08:16:22.727Z,26080.00
2018-06-19T08:17:22.711Z,23200.00
2018-06-19T08:18:22.686Z,22624.00
2018-06-19T08:19:22.680Z,23168.00
2018-06-19T08:20:22.647Z,20544.00
2018-06-19T08:21:22.624Z,20064.00
2018-06-19T08:22:22.606Z,20448.00
2018-06-19T08:23:22.582Z,21600.00
2018-06-19T08:24:22.560Z,22112.00
2018-06-19T08:25:22.539Z,22496.00
2018-06-19T08:26:22.525Z,25408.00
2018-06-19T08:27:22.497Z,28160.00
2018-06-19T08:28:22.476Z,29728.00
2018-06-19T08:29:22.459Z,30976.00
2018-06-19T08:30:22.434Z,30784.00
2018-06-19T08:31:22.412Z,30336.00
2018-06-19T08:32:22.391Z,25824.00
2018-06-19T08:33:22.374Z,26880.00
2018-06-19T08:34:22.354Z,30336.00
2018-06-19T08:35:22.327Z,31488.00
2018-06-19T08:36:22.396Z,32128.00
2018-06-19T08:37:22.285Z,35520.00
2018-06-19T08:38:22.264Z,33056.00
2018-06-19T08:39:22.245Z,32064.00
2018-06-19T08:40:22.221Z,30368.00
2018-06-19T08:41:22.203Z,32352.00
2018-06-19T08:42:22.181Z,31168.00
2018-06-19T08:43:22.159Z,28064.00
2018-06-19T08:44:22.150Z,25856.00
2018-06-19T08:45:22.116Z,24192.00
2018-06-19T08:46:22.096Z,27968.00
2018-06-19T08:47:22.075Z,27296.00
2018-06-19T08:48:22.053Z,29312.00
2018-06-19T08:49:22.032Z,29056.00
2018-06-19T08:50:22.011Z,24000.00
2018-06-19T08:51:21.990Z,25248.00
2018-06-19T08:52:21.968Z,22368.00
2018-06-19T08:53:21.951Z,25440.00
2018-06-19T08:54:21.971Z,25728.00
2018-06-19T08:55:21.906Z,28608.00
2018-06-19T08:56:21.883Z,22112.00
2018-06-19T08:57:21.862Z,19136.00
2018-06-19T08:58:21.842Z,17484.00
2018-06-19T08:59:21.820Z,17984.00
2018-06-19T09:00:21.861Z,16056.00
2018-06-19T09:01:21.978Z,19328.00
2018-06-19T09:02:21.754Z,21312.00
2018-06-19T09:03:21.733Z,18592.00
2018-06-19T09:04:21.919Z,19552.00
2018-06-19T09:05:21.693Z,19584.00
2018-06-19T09:06:21.668Z,15616.00
2018-06-19T09:07:21.646Z,15264.00
2018-06-19T09:08:21.622Z,14380.00
2018-06-19T09:09:21.604Z,19360.00
2018-06-19T09:10:21.579Z,21440.00
2018-06-19T09:11:21.557Z,18784.00
2018-06-19T09:12:21.535Z,15376.00
2018-06-19T09:13:21.517Z,13832.00
2018-06-19T09:14:21.492Z,15112.00
2018-06-19T09:15:21.496Z,14592.00
2018-06-19T09:16:21.447Z,13392.00
2018-06-19T09:17:21.454Z,13396.00
2018-06-19T09:18:21.406Z,13020.00
2018-06-19T09:19:21.382Z,16192.00
2018-06-19T09:20:21.409Z,20192.00
2018-06-19T09:21:21.336Z,22560.00
2018-06-19T09:22:21.319Z,19648.00
2018-06-19T09:23:21.295Z,17528.00
2018-06-19T09:24:21.271Z,17384.00
2018-06-19T09:25:21.250Z,15372.00
2018-06-19T09:26:21.227Z,17488.00
2018-06-19T09:27:21.208Z,18080.00
2018-06-19T09:28:21.182Z,18784.00
2018-06-19T09:29:21.165Z,21312.00
2018-06-19T09:30:21.191Z,23584.00
2018-06-19T09:31:21.127Z,22048.00
2018-06-19T09:32:21.095Z,22496.00
2018-06-19T09:33:21.073Z,19648.00
2018-06-19T09:34:21.051Z,21920.00
2018-06-19T09:35:21.032Z,20416.00
2018-06-19T09:36:21.009Z,18848.00
2018-06-19T09:37:20.990Z,16480.00
2018-06-19T09:38:20.965Z,14680.00
2018-06-19T09:39:20.946Z,13324.00
2018-06-19T09:40:20.923Z,15652.00
2018-06-19T09:41:20.899Z,23232.00
2018-06-19T09:42:20.878Z,24256.00
2018-06-19T09:43:20.855Z,19072.00
2018-06-19T09:44:20.833Z,16868.00
2018-06-19T09:45:20.812Z,15500.00
2018-06-19T09:46:20.794Z,15404.00
2018-06-19T09:47:20.783Z,14936.00
2018-06-19T09:48:20.752Z,13592.00
2018-06-19T09:49:20.727Z,13876.00
2018-06-19T09:50:20.704Z,16576.00
2018-06-19T09:51:20.682Z,27136.00
2018-06-19T09:52:20.660Z,42080.00
2018-06-19T09:53:20.639Z,43616.00
2018-06-19T09:54:20.617Z,35296.00
2018-06-19T09:55:20.599Z,28544.00
2018-06-19T09:56:20.591Z,25472.00
2018-06-19T09:57:20.551Z,27936.00
2018-06-19T09:58:20.582Z,33568.00
2018-06-19T09:59:20.569Z,25824.00
2018-06-19T10:00:20.496Z,23360.00
2018-06-19T10:01:20.466Z,22688.00
2018-06-19T10:02:20.445Z,23456.00
2018-06-19T10:03:20.423Z,22720.00
2018-06-19T10:04:20.401Z,19872.00
2018-06-19T10:05:20.380Z,18656.00
2018-06-19T10:06:20.401Z,17256.00
2018-06-19T10:07:20.337Z,15664.00
2018-06-19T10:08:20.316Z,16696.00
2018-06-19T10:09:20.299Z,17952.00
2018-06-19T10:10:20.273Z,16032.00
2018-06-19T10:11:20.251Z,15508.00
2018-06-19T10:12:20.355Z,14524.00
2018-06-19T10:13:20.208Z,13696.00
2018-06-19T10:14:20.187Z,15184.00
2018-06-19T10:15:20.167Z,19488.00
2018-06-19T10:16:20.142Z,29504.00
2018-06-19T10:17:20.122Z,28608.00
2018-06-19T10:18:20.100Z,21824.00
2018-06-19T10:19:20.079Z,23392.00
2018-06-19T10:20:20.066Z,25184.00
2018-06-19T10:21:20.035Z,21152.00
2018-06-19T10:22:20.014Z,18784.00
2018-06-19T10:23:19.994Z,19136.00
2018-06-19T10:24:19.971Z,19488.00
2018-06-19T10:25:19.949Z,19232.00
2018-06-19T10:26:19.928Z,17156.00
2018-06-19T10:27:19.909Z,17432.00
2018-06-19T10:28:19.885Z,20608.00
2018-06-19T10:29:19.864Z,19328.00
2018-06-19T10:30:19.853Z,19808.00
2018-06-19T10:31:19.821Z,18208.00
2018-06-19T10:32:19.804Z,17364.00
2018-06-19T10:33:19.981Z,18592.00
2018-06-19T10:34:19.762Z,18496.00
2018-06-19T10:35:19.735Z,17664.00
2018-06-19T10:36:19.713Z,20800.00
2018-06-19T10:37:19.691Z,20896.00
2018-06-19T10:38:19.675Z,24000.00
2018-06-19T10:39:19.649Z,28608.00
2018-06-19T10:40:19.892Z,32320.00
2018-06-19T10:41:19.606Z,30912.00
2018-06-19T10:42:19.585Z,29984.00
2018-06-19T10:43:19.563Z,32960.00
2018-06-19T10:44:19.540Z,33632.00
2018-06-19T10:45:19.520Z,33088.00
2018-06-19T10:46:19.504Z,30688.00
2018-06-19T10:47:19.483Z,27040.00
2018-06-19T10:48:19.456Z,26336.00
2018-06-19T10:49:19.438Z,31168.00
2018-06-19T10:50:19.415Z,36320.00
2018-06-19T10:51:19.395Z,40992.00
2018-06-19T10:52:19.372Z,46144.00
2018-06-19T10:53:19.554Z,45024.00
2018-06-19T10:54:19.334Z,40032.00
2018-06-19T10:55:19.312Z,49920.00
2018-06-19T10:56:19.296Z,71104.00
2018-06-19T10:57:19.475Z,83840.00
2018-06-19T10:58:19.252Z,65184.00
2018-06-19T10:59:19.232Z,72960.00
2018-06-19T11:00:19.412Z,65568.00
2018-06-19T11:01:19.195Z,68448.00
2018-06-19T11:02:19.378Z,54720.00
2018-06-19T11:03:19.359Z,61984.00
2018-06-19T11:04:19.339Z,155808.00
2018-06-19T11:05:19.321Z,135552.00
2018-06-19T11:06:19.303Z,64480.00
2018-06-19T11:07:20.114Z,66080.00
2018-06-19T11:08:19.321Z,75680.00
2018-06-19T11:09:19.254Z,65344.00
2018-06-19T11:10:19.244Z,63520.00
2018-06-19T11:11:21.839Z,62336.00
2018-06-19T11:12:19.003Z,45376.00
2018-06-19T11:13:18.982Z,40032.00
2018-06-19T11:14:18.965Z,31360.00
2018-06-19T11:15:18.949Z,26016.00
2018-06-19T11:16:18.933Z,22848.00
2018-06-19T11:17:18.917Z,20384.00
2018-06-19T11:18:18.898Z,17952.00
2018-06-19T11:19:19.084Z,14832.00
2018-06-19T11:20:18.864Z,12120.00
2018-06-19T11:21:18.890Z,10012.00
2018-06-19T11:22:22.264Z,8104.00
2018-06-19T11:23:18.814Z,6740.00
2018-06-19T11:24:18.993Z,5852.00
2018-06-19T11:25:18.773Z,5316.00
2018-06-19T11:26:18.754Z,5428.00
2018-06-19T11:27:18.740Z,6704.00
2018-06-19T11:28:18.918Z,8092.00
2018-06-19T11:29:18.900Z,9992.00
2018-06-19T11:30:18.678Z,13504.00
2018-06-19T11:31:18.660Z,15888.00
2018-06-19T11:32:18.644Z,16028.00
2018-06-19T11:33:18.618Z,14744.00
2018-06-19T11:34:18.607Z,13612.00
2018-06-19T11:35:18.590Z,17856.00
2018-06-19T11:36:18.558Z,19456.00
2018-06-19T11:37:18.549Z,20320.00
2018-06-19T11:38:18.518Z,21472.00
2018-06-19T11:39:18.498Z,22880.00
2018-06-19T11:40:18.475Z,20192.00
2018-06-19T11:41:18.457Z,16712.00
2018-06-19T11:42:18.436Z,16056.00
2018-06-19T11:43:18.422Z,17920.00
2018-06-19T11:44:18.401Z,16620.00
2018-06-19T11:45:18.374Z,15572.00
2018-06-19T11:46:18.354Z,19456.00
2018-06-19T11:47:18.334Z,29152.00
2018-06-19T11:48:18.315Z,33856.00
2018-06-19T11:49:18.345Z,33728.00
2018-06-19T11:50:18.273Z,33632.00
2018-06-19T11:51:18.275Z,33952.00
2018-06-19T11:52:18.232Z,38496.00
2018-06-19T11:53:18.216Z,56128.00
2018-06-19T11:54:18.190Z,90144.00
2018-06-19T11:55:18.169Z,137344.00
2018-06-19T11:56:18.148Z,77344.00
2018-06-19T11:57:18.129Z,88320.00
2018-06-19T11:58:18.312Z,54208.00
2018-06-19T11:59:18.293Z,43200.00
2018-06-19T12:00:18.070Z,40320.00
2018-06-19T12:01:18.125Z,40768.00
2018-06-19T12:02:18.033Z,38336.00
2018-06-19T12:03:18.015Z,33376.00
2018-06-19T12:04:18.199Z,30528.00
2018-06-19T12:05:17.977Z,30080.00
2018-06-19T12:06:17.960Z,30752.00
2018-06-19T12:07:17.950Z,32032.00
2018-06-19T12:08:17.922Z,34592.00